sensor_id;sensor_type;location;lat;lon;timestamp;P1;durP1;ratioP1;P2;durP2;ratioP2
33696;SDS011;20031;43.416;23.232;2022-12-18T00:00:28;34.65;;;19.30;;
33696;SDS011;20031;43.416;23.232;2022-12-18T00:02:55;34.47;;;19.83;;
33696;SDS011;20031;43.416;23.232;2022-12-18T00:05:20;32.65;;;20.17;;
33696;SDS011;20031;43.416;23.232;2022-12-18T00:07:46;33.50;;;19.70;;
33696;SDS011;20031;43.416;23.232;2022-12-18T00:10:11;37.78;;;21.17;;
33696;SDS011;20031;43.416;23.232;2022-12-18T00:12:36;32.92;;;19.63;;
33696;SDS011;20031;43.416;23.232;2022-12-18T00:15:02;36.30;;;20.60;;
33696;SDS011;20031;43.416;23.232;2022-12-18T00:17:28;35.10;;;20.25;;
33696;SDS011;20031;43.416;23.232;2022-12-18T00:19:53;39.67;;;22.40;;
33696;SDS011;20031;43.416;23.232;2022-12-18T00:22:19;38.50;;;21.67;;
33696;SDS011;20031;43.416;23.232;2022-12-18T00:24:44;34.72;;;19.80;;
33696;SDS011;20031;43.416;23.232;2022-12-18T00:27:09;31.38;;;18.77;;
33696;SDS011;20031;43.416;23.232;2022-12-18T00:29:35;35.17;;;17.60;;
33696;SDS011;20031;43.416;23.232;2022-12-18T00:32:00;31.80;;;18.50;;
33696;SDS011;20031;43.416;23.232;2022-12-18T00:34:26;34.08;;;18.65;;
33696;SDS011;20031;43.416;23.232;2022-12-18T00:36:51;32.30;;;18.63;;
33696;SDS011;20031;43.416;23.232;2022-12-18T00:39:16;37.05;;;22.02;;
33696;SDS011;20031;43.416;23.232;2022-12-18T00:41:42;37.95;;;21.88;;
33696;SDS011;20031;43.416;23.232;2022-12-18T00:44:26;36.47;;;21.45;;
33696;SDS011;20031;43.416;23.232;2022-12-18T00:46:51;39.22;;;21.30;;
33696;SDS011;20031;43.416;23.232;2022-12-18T00:49:17;40.85;;;22.52;;
33696;SDS011;20031;43.416;23.232;2022-12-18T00:51:44;40.25;;;22.73;;
33696;SDS011;20031;43.416;23.232;2022-12-18T00:54:09;47.08;;;22.65;;
33696;SDS011;20031;43.416;23.232;2022-12-18T00:56:36;44.90;;;23.58;;
33696;SDS011;20031;43.416;23.232;2022-12-18T00:59:02;41.42;;;22.75;;
33696;SDS011;20031;43.416;23.232;2022-12-18T01:01:28;37.85;;;23.80;;
33696;SDS011;20031;43.416;23.232;2022-12-18T01:03:53;43.25;;;23.98;;
33696;SDS011;20031;43.416;23.232;2022-12-18T01:06:19;37.78;;;20.92;;
33696;SDS011;20031;43.416;23.232;2022-12-18T01:08:45;24.70;;;15.88;;
33696;SDS011;20031;43.416;23.232;2022-12-18T01:11:14;25.92;;;15.25;;
33696;SDS011;20031;43.416;23.232;2022-12-18T01:13:44;26.63;;;14.85;;
33696;SDS011;20031;43.416;23.232;2022-12-18T01:16:14;21.98;;;13.10;;
33696;SDS011;20031;43.416;23.232;2022-12-18T01:18:41;19.63;;;12.68;;
33696;SDS011;20031;43.416;23.232;2022-12-18T01:21:07;20.00;;;13.32;;
33696;SDS011;20031;43.416;23.232;2022-12-18T01:23:34;21.98;;;14.23;;
33696;SDS011;20031;43.416;23.232;2022-12-18T01:26:09;25.33;;;14.48;;
33696;SDS011;20031;43.416;23.232;2022-12-18T01:28:37;26.23;;;16.02;;
33696;SDS011;20031;43.416;23.232;2022-12-18T01:31:12;30.42;;;16.30;;
33696;SDS011;20031;43.416;23.232;2022-12-18T01:33:42;29.98;;;17.23;;
33696;SDS011;20031;43.416;23.232;2022-12-18T01:36:13;25.73;;;17.58;;
33696;SDS011;20031;43.416;23.232;2022-12-18T01:38:40;28.83;;;17.10;;
33696;SDS011;20031;43.416;23.232;2022-12-18T01:41:06;27.50;;;16.35;;
33696;SDS011;20031;43.416;23.232;2022-12-18T01:43:45;25.02;;;16.50;;
33696;SDS011;20031;43.416;23.232;2022-12-18T01:46:22;25.30;;;14.32;;
33696;SDS011;20031;43.416;23.232;2022-12-18T01:48:51;23.02;;;14.10;;
33696;SDS011;20031;43.416;23.232;2022-12-18T01:51:19;22.35;;;14.63;;
33696;SDS011;20031;43.416;23.232;2022-12-18T01:53:45;22.48;;;13.13;;
33696;SDS011;20031;43.416;23.232;2022-12-18T01:56:13;21.67;;;12.10;;
33696;SDS011;20031;43.416;23.232;2022-12-18T01:58:50;20.13;;;12.32;;
33696;SDS011;20031;43.416;23.232;2022-12-18T02:01:37;21.60;;;13.77;;
33696;SDS011;20031;43.416;23.232;2022-12-18T02:04:25;18.95;;;12.38;;
33696;SDS011;20031;43.416;23.232;2022-12-18T02:06:54;20.60;;;13.57;;
33696;SDS011;20031;43.416;23.232;2022-12-18T02:09:33;21.83;;;13.88;;
33696;SDS011;20031;43.416;23.232;2022-12-18T02:12:23;23.40;;;13.57;;
33696;SDS011;20031;43.416;23.232;2022-12-18T02:20:21;23.00;;;12.55;;
33696;SDS011;20031;43.416;23.232;2022-12-18T02:28:24;23.00;;;13.18;;
33696;SDS011;20031;43.416;23.232;2022-12-18T02:30:53;20.38;;;13.13;;
33696;SDS011;20031;43.416;23.232;2022-12-18T02:33:23;21.98;;;12.68;;
33696;SDS011;20031;43.416;23.232;2022-12-18T02:35:51;23.15;;;14.00;;
33696;SDS011;20031;43.416;23.232;2022-12-18T02:38:19;22.52;;;13.63;;
33696;SDS011;20031;43.416;23.232;2022-12-18T02:40:44;20.35;;;13.57;;
33696;SDS011;20031;43.416;23.232;2022-12-18T02:43:15;23.13;;;14.02;;
33696;SDS011;20031;43.416;23.232;2022-12-18T02:45:47;25.30;;;14.20;;
33696;SDS011;20031;43.416;23.232;2022-12-18T02:48:18;22.40;;;14.43;;
33696;SDS011;20031;43.416;23.232;2022-12-18T02:50:58;24.00;;;15.40;;
33696;SDS011;20031;43.416;23.232;2022-12-18T02:56:18;27.50;;;16.25;;
33696;SDS011;20031;43.416;23.232;2022-12-18T03:03:58;34.30;;;18.70;;
33696;SDS011;20031;43.416;23.232;2022-12-18T03:06:30;32.42;;;18.88;;
33696;SDS011;20031;43.416;23.232;2022-12-18T03:09:02;32.50;;;19.27;;
33696;SDS011;20031;43.416;23.232;2022-12-18T03:11:36;31.85;;;18.85;;
33696;SDS011;20031;43.416;23.232;2022-12-18T03:14:24;33.05;;;17.70;;
33696;SDS011;20031;43.416;23.232;2022-12-18T03:16:52;30.65;;;19.10;;
33696;SDS011;20031;43.416;23.232;2022-12-18T03:19:24;32.28;;;19.08;;
33696;SDS011;20031;43.416;23.232;2022-12-18T03:21:54;32.30;;;18.83;;
33696;SDS011;20031;43.416;23.232;2022-12-18T03:24:21;32.75;;;19.17;;
33696;SDS011;20031;43.416;23.232;2022-12-18T03:26:51;30.25;;;18.73;;
33696;SDS011;20031;43.416;23.232;2022-12-18T03:29:25;33.47;;;19.23;;
33696;SDS011;20031;43.416;23.232;2022-12-18T03:31:59;33.25;;;19.35;;
33696;SDS011;20031;43.416;23.232;2022-12-18T03:34:30;33.00;;;19.40;;
33696;SDS011;20031;43.416;23.232;2022-12-18T03:37:00;32.17;;;18.85;;
33696;SDS011;20031;43.416;23.232;2022-12-18T03:39:26;32.30;;;18.60;;
33696;SDS011;20031;43.416;23.232;2022-12-18T03:42:01;32.75;;;19.67;;
33696;SDS011;20031;43.416;23.232;2022-12-18T03:47:22;31.25;;;18.25;;
33696;SDS011;20031;43.416;23.232;2022-12-18T03:52:32;31.08;;;18.27;;
33696;SDS011;20031;43.416;23.232;2022-12-18T03:55:03;30.67;;;17.95;;
33696;SDS011;20031;43.416;23.232;2022-12-18T03:57:31;31.90;;;18.17;;
33696;SDS011;20031;43.416;23.232;2022-12-18T04:00:08;31.30;;;18.13;;
33696;SDS011;20031;43.416;23.232;2022-12-18T04:02:40;32.38;;;19.25;;
33696;SDS011;20031;43.416;23.232;2022-12-18T04:05:09;32.35;;;18.73;;
33696;SDS011;20031;43.416;23.232;2022-12-18T04:07:37;38.67;;;23.33;;
33696;SDS011;20031;43.416;23.232;2022-12-18T04:10:04;47.67;;;27.77;;
33696;SDS011;20031;43.416;23.232;2022-12-18T04:12:32;43.85;;;25.10;;
33696;SDS011;20031;43.416;23.232;2022-12-18T04:14:57;38.88;;;23.63;;
33696;SDS011;20031;43.416;23.232;2022-12-18T04:17:23;36.65;;;22.33;;
33696;SDS011;20031;43.416;23.232;2022-12-18T04:19:48;36.55;;;22.48;;
33696;SDS011;20031;43.416;23.232;2022-12-18T04:22:14;42.20;;;22.52;;
33696;SDS011;20031;43.416;23.232;2022-12-18T04:24:39;34.35;;;20.60;;
33696;SDS011;20031;43.416;23.232;2022-12-18T04:27:05;34.00;;;20.48;;
33696;SDS011;20031;43.416;23.232;2022-12-18T04:29:30;35.15;;;20.95;;
33696;SDS011;20031;43.416;23.232;2022-12-18T04:31:56;36.97;;;20.42;;
33696;SDS011;20031;43.416;23.232;2022-12-18T04:34:21;33.53;;;20.23;;
33696;SDS011;20031;43.416;23.232;2022-12-18T04:36:47;33.95;;;19.88;;
33696;SDS011;20031;43.416;23.232;2022-12-18T04:39:13;35.05;;;19.98;;
33696;SDS011;20031;43.416;23.232;2022-12-18T04:41:39;31.90;;;19.65;;
33696;SDS011;20031;43.416;23.232;2022-12-18T04:44:04;38.67;;;20.65;;
33696;SDS011;20031;43.416;23.232;2022-12-18T04:46:30;33.83;;;19.00;;
33696;SDS011;20031;43.416;23.232;2022-12-18T04:48:55;32.25;;;19.13;;
33696;SDS011;20031;43.416;23.232;2022-12-18T04:51:21;34.65;;;19.90;;
33696;SDS011;20031;43.416;23.232;2022-12-18T04:53:47;35.58;;;19.83;;
33696;SDS011;20031;43.416;23.232;2022-12-18T04:56:13;31.92;;;19.80;;
33696;SDS011;20031;43.416;23.232;2022-12-18T04:58:40;32.38;;;19.80;;
33696;SDS011;20031;43.416;23.232;2022-12-18T05:01:07;36.25;;;20.33;;
33696;SDS011;20031;43.416;23.232;2022-12-18T05:03:34;33.47;;;20.88;;
33696;SDS011;20031;43.416;23.232;2022-12-18T05:06:00;36.90;;;20.20;;
33696;SDS011;20031;43.416;23.232;2022-12-18T05:08:26;37.80;;;20.95;;
33696;SDS011;20031;43.416;23.232;2022-12-18T05:11:08;35.58;;;20.75;;
33696;SDS011;20031;43.416;23.232;2022-12-18T05:13:35;35.42;;;20.33;;
33696;SDS011;20031;43.416;23.232;2022-12-18T05:16:01;33.88;;;19.88;;
33696;SDS011;20031;43.416;23.232;2022-12-18T05:18:27;35.28;;;20.17;;
33696;SDS011;20031;43.416;23.232;2022-12-18T05:20:53;37.88;;;22.20;;
33696;SDS011;20031;43.416;23.232;2022-12-18T05:23:20;33.72;;;20.42;;
33696;SDS011;20031;43.416;23.232;2022-12-18T05:25:58;39.53;;;22.10;;
33696;SDS011;20031;43.416;23.232;2022-12-18T05:28:26;38.20;;;22.98;;
33696;SDS011;20031;43.416;23.232;2022-12-18T05:30:54;46.60;;;24.08;;
33696;SDS011;20031;43.416;23.232;2022-12-18T05:33:22;41.05;;;24.80;;
33696;SDS011;20031;43.416;23.232;2022-12-18T05:35:52;39.17;;;21.40;;
33696;SDS011;20031;43.416;23.232;2022-12-18T05:38:19;37.85;;;21.85;;
33696;SDS011;20031;43.416;23.232;2022-12-18T05:40:46;37.95;;;20.48;;
33696;SDS011;20031;43.416;23.232;2022-12-18T05:43:12;36.60;;;21.77;;
33696;SDS011;20031;43.416;23.232;2022-12-18T05:45:38;35.63;;;22.05;;
33696;SDS011;20031;43.416;23.232;2022-12-18T05:48:04;37.67;;;22.30;;
33696;SDS011;20031;43.416;23.232;2022-12-18T05:50:30;38.00;;;22.95;;
33696;SDS011;20031;43.416;23.232;2022-12-18T05:52:55;35.72;;;21.20;;
33696;SDS011;20031;43.416;23.232;2022-12-18T05:55:20;32.33;;;19.60;;
33696;SDS011;20031;43.416;23.232;2022-12-18T05:57:46;34.67;;;19.50;;
33696;SDS011;20031;43.416;23.232;2022-12-18T06:00:12;40.72;;;22.75;;
33696;SDS011;20031;43.416;23.232;2022-12-18T06:02:38;34.63;;;19.77;;
33696;SDS011;20031;43.416;23.232;2022-12-18T06:05:03;36.13;;;20.38;;
33696;SDS011;20031;43.416;23.232;2022-12-18T06:07:29;33.80;;;20.25;;
33696;SDS011;20031;43.416;23.232;2022-12-18T06:09:54;51.50;;;33.97;;
33696;SDS011;20031;43.416;23.232;2022-12-18T06:12:20;44.42;;;27.25;;
33696;SDS011;20031;43.416;23.232;2022-12-18T06:14:46;40.63;;;23.73;;
33696;SDS011;20031;43.416;23.232;2022-12-18T06:17:11;36.78;;;22.17;;
33696;SDS011;20031;43.416;23.232;2022-12-18T06:19:36;36.40;;;20.95;;
33696;SDS011;20031;43.416;23.232;2022-12-18T06:22:02;42.33;;;23.67;;
33696;SDS011;20031;43.416;23.232;2022-12-18T06:24:27;45.80;;;25.08;;
33696;SDS011;20031;43.416;23.232;2022-12-18T06:26:53;45.72;;;25.95;;
33696;SDS011;20031;43.416;23.232;2022-12-18T06:29:18;50.35;;;26.60;;
33696;SDS011;20031;43.416;23.232;2022-12-18T06:31:44;43.85;;;26.23;;
33696;SDS011;20031;43.416;23.232;2022-12-18T06:34:10;47.75;;;26.65;;
33696;SDS011;20031;43.416;23.232;2022-12-18T06:36:35;44.53;;;24.77;;
33696;SDS011;20031;43.416;23.232;2022-12-18T06:39:01;40.92;;;23.88;;
33696;SDS011;20031;43.416;23.232;2022-12-18T06:41:26;38.47;;;23.30;;
33696;SDS011;20031;43.416;23.232;2022-12-18T06:43:52;43.58;;;26.20;;
33696;SDS011;20031;43.416;23.232;2022-12-18T06:46:17;44.55;;;26.42;;
33696;SDS011;20031;43.416;23.232;2022-12-18T06:48:46;45.83;;;25.05;;
33696;SDS011;20031;43.416;23.232;2022-12-18T06:51:12;41.40;;;25.25;;
33696;SDS011;20031;43.416;23.232;2022-12-18T06:53:41;39.55;;;24.33;;
33696;SDS011;20031;43.416;23.232;2022-12-18T06:56:06;39.95;;;24.05;;
33696;SDS011;20031;43.416;23.232;2022-12-18T06:58:32;43.95;;;24.33;;
33696;SDS011;20031;43.416;23.232;2022-12-18T07:01:01;41.20;;;22.98;;
33696;SDS011;20031;43.416;23.232;2022-12-18T07:03:28;36.47;;;22.38;;
33696;SDS011;20031;43.416;23.232;2022-12-18T07:05:54;36.88;;;22.95;;
33696;SDS011;20031;43.416;23.232;2022-12-18T07:08:19;41.30;;;23.75;;
33696;SDS011;20031;43.416;23.232;2022-12-18T07:10:44;39.60;;;22.23;;
33696;SDS011;20031;43.416;23.232;2022-12-18T07:13:10;42.55;;;23.98;;
33696;SDS011;20031;43.416;23.232;2022-12-18T07:15:35;38.85;;;24.25;;
33696;SDS011;20031;43.416;23.232;2022-12-18T07:18:01;44.63;;;24.15;;
33696;SDS011;20031;43.416;23.232;2022-12-18T07:20:26;37.53;;;23.58;;
33696;SDS011;20031;43.416;23.232;2022-12-18T07:22:52;42.65;;;23.90;;
33696;SDS011;20031;43.416;23.232;2022-12-18T07:25:17;39.97;;;22.85;;
33696;SDS011;20031;43.416;23.232;2022-12-18T07:27:44;42.20;;;23.30;;
33696;SDS011;20031;43.416;23.232;2022-12-18T07:30:09;40.28;;;22.58;;
33696;SDS011;20031;43.416;23.232;2022-12-18T07:32:35;36.70;;;22.90;;
33696;SDS011;20031;43.416;23.232;2022-12-18T07:35:00;36.33;;;22.15;;
33696;SDS011;20031;43.416;23.232;2022-12-18T07:37:26;38.00;;;21.65;;
33696;SDS011;20031;43.416;23.232;2022-12-18T07:39:51;40.95;;;23.98;;
33696;SDS011;20031;43.416;23.232;2022-12-18T07:42:17;41.78;;;24.05;;
33696;SDS011;20031;43.416;23.232;2022-12-18T07:45:00;40.97;;;22.73;;
33696;SDS011;20031;43.416;23.232;2022-12-18T07:47:27;45.60;;;23.85;;
33696;SDS011;20031;43.416;23.232;2022-12-18T07:49:53;41.95;;;24.27;;
33696;SDS011;20031;43.416;23.232;2022-12-18T07:52:18;38.03;;;22.25;;
33696;SDS011;20031;43.416;23.232;2022-12-18T07:54:44;37.95;;;23.92;;
33696;SDS011;20031;43.416;23.232;2022-12-18T07:57:09;46.00;;;24.02;;
33696;SDS011;20031;43.416;23.232;2022-12-18T07:59:35;45.97;;;25.20;;
33696;SDS011;20031;43.416;23.232;2022-12-18T08:02:01;40.42;;;24.25;;
33696;SDS011;20031;43.416;23.232;2022-12-18T08:04:26;45.40;;;24.73;;
33696;SDS011;20031;43.416;23.232;2022-12-18T08:06:52;44.08;;;24.85;;
33696;SDS011;20031;43.416;23.232;2022-12-18T08:09:18;45.78;;;24.85;;
33696;SDS011;20031;43.416;23.232;2022-12-18T08:11:43;41.25;;;22.67;;
33696;SDS011;20031;43.416;23.232;2022-12-18T08:14:09;40.55;;;22.17;;
33696;SDS011;20031;43.416;23.232;2022-12-18T08:16:35;39.95;;;21.75;;
33696;SDS011;20031;43.416;23.232;2022-12-18T08:19:01;38.90;;;20.95;;
33696;SDS011;20031;43.416;23.232;2022-12-18T08:21:27;41.92;;;21.17;;
33696;SDS011;20031;43.416;23.232;2022-12-18T08:23:55;35.58;;;22.05;;
33696;SDS011;20031;43.416;23.232;2022-12-18T08:26:22;40.45;;;23.88;;
33696;SDS011;20031;43.416;23.232;2022-12-18T08:28:49;37.70;;;22.67;;
33696;SDS011;20031;43.416;23.232;2022-12-18T08:31:15;37.97;;;20.92;;
33696;SDS011;20031;43.416;23.232;2022-12-18T08:33:41;29.55;;;17.83;;
33696;SDS011;20031;43.416;23.232;2022-12-18T08:36:07;32.83;;;18.23;;
33696;SDS011;20031;43.416;23.232;2022-12-18T08:38:34;30.85;;;17.83;;
33696;SDS011;20031;43.416;23.232;2022-12-18T08:43:26;31.83;;;18.80;;
33696;SDS011;20031;43.416;23.232;2022-12-18T08:46:11;28.58;;;16.55;;
33696;SDS011;20031;43.416;23.232;2022-12-18T08:48:37;25.92;;;15.90;;
33696;SDS011;20031;43.416;23.232;2022-12-18T08:51:02;27.08;;;16.35;;
33696;SDS011;20031;43.416;23.232;2022-12-18T08:53:28;29.17;;;17.15;;
33696;SDS011;20031;43.416;23.232;2022-12-18T08:55:53;30.88;;;16.80;;
33696;SDS011;20031;43.416;23.232;2022-12-18T08:58:21;27.77;;;16.75;;
33696;SDS011;20031;43.416;23.232;2022-12-18T09:00:46;29.73;;;18.10;;
33696;SDS011;20031;43.416;23.232;2022-12-18T09:03:12;60.88;;;31.75;;
33696;SDS011;20031;43.416;23.232;2022-12-18T09:05:38;30.08;;;16.48;;
33696;SDS011;20031;43.416;23.232;2022-12-18T09:08:04;32.65;;;18.58;;
33696;SDS011;20031;43.416;23.232;2022-12-18T09:10:29;47.55;;;25.17;;
33696;SDS011;20031;43.416;23.232;2022-12-18T09:12:55;21.05;;;13.75;;
33696;SDS011;20031;43.416;23.232;2022-12-18T09:15:21;27.52;;;14.20;;
33696;SDS011;20031;43.416;23.232;2022-12-18T09:17:47;27.35;;;15.35;;
33696;SDS011;20031;43.416;23.232;2022-12-18T09:20:13;29.42;;;16.10;;
33696;SDS011;20031;43.416;23.232;2022-12-18T09:22:38;23.25;;;14.02;;
33696;SDS011;20031;43.416;23.232;2022-12-18T09:25:04;36.28;;;17.33;;
33696;SDS011;20031;43.416;23.232;2022-12-18T09:27:32;24.52;;;14.45;;
33696;SDS011;20031;43.416;23.232;2022-12-18T09:29:58;40.50;;;20.15;;
33696;SDS011;20031;43.416;23.232;2022-12-18T09:32:24;19.08;;;11.50;;
33696;SDS011;20031;43.416;23.232;2022-12-18T09:34:49;22.35;;;13.55;;
33696;SDS011;20031;43.416;23.232;2022-12-18T09:37:14;21.75;;;12.85;;
33696;SDS011;20031;43.416;23.232;2022-12-18T09:39:40;26.38;;;14.60;;
33696;SDS011;20031;43.416;23.232;2022-12-18T09:42:05;30.85;;;16.67;;
33696;SDS011;20031;43.416;23.232;2022-12-18T09:49:45;28.70;;;13.40;;
33696;SDS011;20031;43.416;23.232;2022-12-18T09:55:11;21.63;;;12.15;;
33696;SDS011;20031;43.416;23.232;2022-12-18T09:57:59;22.17;;;13.30;;
33696;SDS011;20031;43.416;23.232;2022-12-18T10:00:40;29.95;;;15.38;;
33696;SDS011;20031;43.416;23.232;2022-12-18T10:03:11;34.60;;;17.98;;
33696;SDS011;20031;43.416;23.232;2022-12-18T10:08:22;25.67;;;13.27;;
33696;SDS011;20031;43.416;23.232;2022-12-18T10:11:03;22.67;;;13.00;;
33696;SDS011;20031;43.416;23.232;2022-12-18T10:13:48;19.50;;;11.23;;
33696;SDS011;20031;43.416;23.232;2022-12-18T10:16:38;21.55;;;11.25;;
33696;SDS011;20031;43.416;23.232;2022-12-18T10:19:18;20.67;;;10.77;;
33696;SDS011;20031;43.416;23.232;2022-12-18T10:26:52;27.30;;;13.00;;
33696;SDS011;20031;43.416;23.232;2022-12-18T10:29:21;25.63;;;14.27;;
33696;SDS011;20031;43.416;23.232;2022-12-18T10:31:47;27.20;;;13.27;;
33696;SDS011;20031;43.416;23.232;2022-12-18T10:34:12;26.65;;;14.38;;
33696;SDS011;20031;43.416;23.232;2022-12-18T10:36:40;20.02;;;11.82;;
33696;SDS011;20031;43.416;23.232;2022-12-18T10:39:16;30.20;;;15.65;;
33696;SDS011;20031;43.416;23.232;2022-12-18T10:41:47;30.27;;;16.00;;
33696;SDS011;20031;43.416;23.232;2022-12-18T10:44:17;34.85;;;18.30;;
33696;SDS011;20031;43.416;23.232;2022-12-18T10:46:48;48.15;;;25.73;;
33696;SDS011;20031;43.416;23.232;2022-12-18T10:49:19;42.10;;;20.92;;
33696;SDS011;20031;43.416;23.232;2022-12-18T10:51:49;41.53;;;19.40;;
33696;SDS011;20031;43.416;23.232;2022-12-18T10:54:20;29.17;;;15.63;;
33696;SDS011;20031;43.416;23.232;2022-12-18T10:56:48;23.38;;;12.07;;
33696;SDS011;20031;43.416;23.232;2022-12-18T10:59:15;22.00;;;9.77;;
33696;SDS011;20031;43.416;23.232;2022-12-18T11:04:21;21.20;;;12.27;;
33696;SDS011;20031;43.416;23.232;2022-12-18T11:06:56;19.85;;;10.55;;
33696;SDS011;20031;43.416;23.232;2022-12-18T11:09:22;14.27;;;7.72;;
33696;SDS011;20031;43.416;23.232;2022-12-18T11:11:53;22.10;;;10.65;;
33696;SDS011;20031;43.416;23.232;2022-12-18T11:14:26;33.60;;;17.38;;
33696;SDS011;20031;43.416;23.232;2022-12-18T11:16:54;29.45;;;17.15;;
33696;SDS011;20031;43.416;23.232;2022-12-18T11:19:28;16.70;;;9.90;;
33696;SDS011;20031;43.416;23.232;2022-12-18T11:22:00;49.28;;;21.33;;
33696;SDS011;20031;43.416;23.232;2022-12-18T11:24:31;21.02;;;10.35;;
33696;SDS011;20031;43.416;23.232;2022-12-18T11:26:59;19.15;;;10.38;;
33696;SDS011;20031;43.416;23.232;2022-12-18T11:29:37;30.35;;;13.63;;
33696;SDS011;20031;43.416;23.232;2022-12-18T11:37:47;12.93;;;7.43;;
33696;SDS011;20031;43.416;23.232;2022-12-18T11:40:22;14.82;;;6.80;;
33696;SDS011;20031;43.416;23.232;2022-12-18T11:45:25;33.05;;;15.32;;
33696;SDS011;20031;43.416;23.232;2022-12-18T11:47:56;12.30;;;6.70;;
33696;SDS011;20031;43.416;23.232;2022-12-18T11:53:14;9.05;;;5.75;;
33696;SDS011;20031;43.416;23.232;2022-12-18T12:01:06;17.15;;;5.90;;
33696;SDS011;20031;43.416;23.232;2022-12-18T12:11:58;14.15;;;7.10;;
33696;SDS011;20031;43.416;23.232;2022-12-18T12:17:30;21.95;;;12.02;;
33696;SDS011;20031;43.416;23.232;2022-12-18T12:25:41;20.23;;;9.75;;
33696;SDS011;20031;43.416;23.232;2022-12-18T12:28:41;12.88;;;7.13;;
33696;SDS011;20031;43.416;23.232;2022-12-18T12:34:21;14.20;;;7.60;;
33696;SDS011;20031;43.416;23.232;2022-12-18T12:39:36;37.28;;;14.68;;
33696;SDS011;20031;43.416;23.232;2022-12-18T12:42:06;23.60;;;9.93;;
33696;SDS011;20031;43.416;23.232;2022-12-18T12:44:59;59.63;;;26.45;;
33696;SDS011;20031;43.416;23.232;2022-12-18T12:47:31;46.05;;;20.05;;
33696;SDS011;20031;43.416;23.232;2022-12-18T12:50:01;75.03;;;32.20;;
33696;SDS011;20031;43.416;23.232;2022-12-18T12:55:05;65.45;;;31.02;;
33696;SDS011;20031;43.416;23.232;2022-12-18T12:57:45;78.80;;;35.53;;
33696;SDS011;20031;43.416;23.232;2022-12-18T13:00:24;45.47;;;21.77;;
33696;SDS011;20031;43.416;23.232;2022-12-18T13:03:08;38.92;;;18.70;;
33696;SDS011;20031;43.416;23.232;2022-12-18T13:08:27;12.80;;;7.82;;
33696;SDS011;20031;43.416;23.232;2022-12-18T13:10:54;13.77;;;7.90;;
33696;SDS011;20031;43.416;23.232;2022-12-18T13:13:52;13.13;;;7.28;;
33696;SDS011;20031;43.416;23.232;2022-12-18T13:16:20;12.15;;;7.32;;
33696;SDS011;20031;43.416;23.232;2022-12-18T13:18:50;15.35;;;8.18;;
33696;SDS011;20031;43.416;23.232;2022-12-18T13:21:30;13.40;;;7.65;;
33696;SDS011;20031;43.416;23.232;2022-12-18T13:24:14;13.32;;;7.90;;
33696;SDS011;20031;43.416;23.232;2022-12-18T13:26:47;14.27;;;7.63;;
33696;SDS011;20031;43.416;23.232;2022-12-18T13:29:14;18.80;;;8.38;;
33696;SDS011;20031;43.416;23.232;2022-12-18T13:32:16;16.88;;;8.02;;
33696;SDS011;20031;43.416;23.232;2022-12-18T13:34:46;17.90;;;8.10;;
33696;SDS011;20031;43.416;23.232;2022-12-18T13:40:24;14.75;;;8.30;;
33696;SDS011;20031;43.416;23.232;2022-12-18T13:43:14;13.82;;;8.20;;
33696;SDS011;20031;43.416;23.232;2022-12-18T13:45:43;15.00;;;8.75;;
33696;SDS011;20031;43.416;23.232;2022-12-18T13:48:15;16.35;;;9.38;;
33696;SDS011;20031;43.416;23.232;2022-12-18T13:50:42;14.55;;;8.52;;
33696;SDS011;20031;43.416;23.232;2022-12-18T13:53:13;13.73;;;8.57;;
33696;SDS011;20031;43.416;23.232;2022-12-18T13:55:48;15.02;;;8.68;;
33696;SDS011;20031;43.416;23.232;2022-12-18T13:58:15;17.00;;;9.18;;
33696;SDS011;20031;43.416;23.232;2022-12-18T14:00:42;17.38;;;9.80;;
33696;SDS011;20031;43.416;23.232;2022-12-18T14:03:17;14.90;;;8.95;;
33696;SDS011;20031;43.416;23.232;2022-12-18T14:05:54;17.20;;;8.83;;
33696;SDS011;20031;43.416;23.232;2022-12-18T14:08:25;19.40;;;9.98;;
33696;SDS011;20031;43.416;23.232;2022-12-18T14:10:57;15.93;;;9.25;;
33696;SDS011;20031;43.416;23.232;2022-12-18T14:13:30;17.70;;;10.07;;
33696;SDS011;20031;43.416;23.232;2022-12-18T14:16:00;16.58;;;9.88;;
33696;SDS011;20031;43.416;23.232;2022-12-18T14:18:44;17.38;;;10.07;;
33696;SDS011;20031;43.416;23.232;2022-12-18T14:24:02;19.48;;;10.40;;
33696;SDS011;20031;43.416;23.232;2022-12-18T14:26:29;16.63;;;9.95;;
33696;SDS011;20031;43.416;23.232;2022-12-18T14:28:56;17.70;;;10.15;;
33696;SDS011;20031;43.416;23.232;2022-12-18T14:31:24;21.05;;;11.70;;
33696;SDS011;20031;43.416;23.232;2022-12-18T14:33:51;16.75;;;9.50;;
33696;SDS011;20031;43.416;23.232;2022-12-18T14:36:18;22.45;;;10.88;;
33696;SDS011;20031;43.416;23.232;2022-12-18T14:38:55;23.23;;;11.15;;
33696;SDS011;20031;43.416;23.232;2022-12-18T14:41:22;21.88;;;12.35;;
33696;SDS011;20031;43.416;23.232;2022-12-18T14:43:52;21.65;;;11.23;;
33696;SDS011;20031;43.416;23.232;2022-12-18T14:52:06;22.23;;;11.00;;
33696;SDS011;20031;43.416;23.232;2022-12-18T14:54:47;16.52;;;9.85;;
33696;SDS011;20031;43.416;23.232;2022-12-18T14:57:35;20.15;;;10.35;;
33696;SDS011;20031;43.416;23.232;2022-12-18T15:00:06;23.15;;;11.27;;
33696;SDS011;20031;43.416;23.232;2022-12-18T15:02:40;20.50;;;10.85;;
33696;SDS011;20031;43.416;23.232;2022-12-18T15:05:16;23.35;;;10.75;;
33696;SDS011;20031;43.416;23.232;2022-12-18T15:07:47;19.95;;;11.43;;
33696;SDS011;20031;43.416;23.232;2022-12-18T15:10:16;18.60;;;10.75;;
33696;SDS011;20031;43.416;23.232;2022-12-18T15:12:45;16.63;;;10.45;;
33696;SDS011;20031;43.416;23.232;2022-12-18T15:18:12;18.38;;;10.93;;
33696;SDS011;20031;43.416;23.232;2022-12-18T15:20:52;17.55;;;10.52;;
33696;SDS011;20031;43.416;23.232;2022-12-18T15:25:55;20.30;;;11.45;;
33696;SDS011;20031;43.416;23.232;2022-12-18T15:28:26;21.58;;;11.70;;
33696;SDS011;20031;43.416;23.232;2022-12-18T15:31:06;21.60;;;12.27;;
33696;SDS011;20031;43.416;23.232;2022-12-18T15:33:36;31.33;;;14.00;;
33696;SDS011;20031;43.416;23.232;2022-12-18T15:36:12;26.15;;;13.73;;
33696;SDS011;20031;43.416;23.232;2022-12-18T15:38:39;24.38;;;13.38;;
33696;SDS011;20031;43.416;23.232;2022-12-18T15:41:04;34.88;;;16.85;;
33696;SDS011;20031;43.416;23.232;2022-12-18T15:43:30;55.33;;;19.17;;
33696;SDS011;20031;43.416;23.232;2022-12-18T15:45:58;24.27;;;13.15;;
33696;SDS011;20031;43.416;23.232;2022-12-18T15:48:45;23.95;;;12.60;;
33696;SDS011;20031;43.416;23.232;2022-12-18T15:51:18;24.38;;;13.77;;
33696;SDS011;20031;43.416;23.232;2022-12-18T15:53:47;24.15;;;13.18;;
33696;SDS011;20031;43.416;23.232;2022-12-18T15:56:15;24.92;;;13.52;;
33696;SDS011;20031;43.416;23.232;2022-12-18T15:59:00;26.25;;;15.32;;
33696;SDS011;20031;43.416;23.232;2022-12-18T16:01:26;27.25;;;15.75;;
33696;SDS011;20031;43.416;23.232;2022-12-18T16:03:54;26.38;;;15.73;;
33696;SDS011;20031;43.416;23.232;2022-12-18T16:06:20;29.33;;;15.43;;
33696;SDS011;20031;43.416;23.232;2022-12-18T16:08:46;29.98;;;16.23;;
33696;SDS011;20031;43.416;23.232;2022-12-18T16:11:23;31.17;;;16.08;;